createdAt,value
2022-09-04T00:00:10.436Z,99855.78
2022-09-04T00:00:41.951Z,99858.84
2022-09-04T00:01:13.429Z,99854.69
2022-09-04T00:01:45.393Z,99852.75
2022-09-04T00:02:17.304Z,99858.03
2022-09-04T00:02:48.738Z,99859.66
2022-09-04T00:03:20.558Z,99857.72
2022-09-04T00:03:52.122Z,99860.88
2022-09-04T00:04:23.816Z,99862.00
2022-09-04T00:04:55.684Z,99863.75
2022-09-04T00:05:27.510Z,99863.25
2022-09-04T00:05:58.877Z,99867.41
2022-09-04T00:06:30.764Z,99859.19
2022-09-04T00:07:03.252Z,99866.22
2022-09-04T00:07:35.335Z,99860.41
2022-09-04T00:08:07.553Z,99867.44
2022-09-04T00:08:38.988Z,99860.94
2022-09-04T00:09:10.445Z,99865.91
2022-09-04T00:09:42.149Z,99863.19
2022-09-04T00:10:13.934Z,99872.50
2022-09-04T00:10:45.749Z,99864.28
2022-09-04T00:11:17.700Z,99872.50
2022-09-04T00:11:49.361Z,99868.44
2022-09-04T00:12:23.766Z,99870.06
2022-09-04T00:12:58.243Z,99872.00
2022-09-04T00:13:29.964Z,99874.72
2022-09-04T00:14:01.707Z,99875.34
2022-09-04T00:14:33.650Z,99877.28
2022-09-04T00:15:05.044Z,99876.97
2022-09-04T00:15:36.434Z,99875.34
2022-09-04T00:16:07.885Z,99877.28
2022-09-04T00:16:40.098Z,99878.09
2022-09-04T00:17:12.067Z,99877.56
2022-09-04T00:17:43.759Z,99876.16
2022-09-04T00:18:16.244Z,99873.72
2022-09-04T00:18:47.807Z,99881.72
2022-09-04T00:19:19.442Z,99882.84
2022-09-04T00:19:50.917Z,99880.09
2022-09-04T00:20:22.664Z,99891.34
2022-09-04T00:20:54.418Z,99888.94
2022-09-04T00:21:25.834Z,99882.66
2022-09-04T00:21:57.669Z,99882.13
2022-09-04T00:22:29.619Z,99887.09
2022-09-04T00:23:01.602Z,99887.09
2022-09-04T00:23:33.266Z,99892.56
2022-09-04T00:24:04.775Z,99892.56
2022-09-04T00:24:37.293Z,99895.63
2022-09-04T00:25:08.772Z,99890.16
2022-09-04T00:25:40.986Z,99894.00
2022-09-04T00:26:12.661Z,99891.25
2022-09-04T00:26:44.145Z,99889.03
2022-09-04T00:27:15.770Z,99890.16
2022-09-04T00:27:50.031Z,99890.94
2022-09-04T00:28:22.391Z,99890.16
2022-09-04T00:28:54.131Z,99885.78
2022-09-04T00:29:26.365Z,99888.53
2022-09-04T00:29:57.973Z,99901.69
2022-09-04T00:30:29.693Z,99895.41
2022-09-04T00:31:01.337Z,99890.25
2022-09-04T00:31:33.048Z,99889.94
2022-09-04T00:32:04.705Z,99887.50
2022-09-04T00:32:36.280Z,99889.13
2022-09-04T00:33:08.058Z,99892.97
2022-09-04T00:33:40.438Z,99891.34
2022-09-04T00:34:11.922Z,99896.53
2022-09-04T00:34:43.706Z,99888.31
2022-09-04T00:35:15.561Z,99889.13
2022-09-04T00:35:46.978Z,99894.59
2022-09-04T00:36:19.312Z,99901.19
2022-09-04T00:36:50.807Z,99894.59
2022-09-04T00:37:22.933Z,99899.75
2022-09-04T00:37:54.559Z,99897.84
2022-09-04T00:38:26.195Z,99893.19
2022-09-04T00:38:58.036Z,99893.19
2022-09-04T00:39:29.647Z,99889.13
2022-09-04T00:40:01.337Z,99898.66
2022-09-04T00:40:33.029Z,99897.03
2022-09-04T00:41:05.293Z,99896.22
2022-09-04T00:41:36.742Z,99894.59
2022-09-04T00:42:08.345Z,99896.53
2022-09-04T00:42:39.989Z,99894.09
2022-09-04T00:43:11.933Z,99890.53
2022-09-04T00:43:44.097Z,99889.94
2022-09-04T00:44:16.205Z,99885.59
2022-09-04T00:44:47.855Z,99897.34
2022-09-04T00:45:19.798Z,99889.44
2022-09-04T00:45:52.004Z,99896.81
2022-09-04T00:46:24.205Z,99900.69
2022-09-04T00:46:56.057Z,99904.53
2022-09-04T00:47:27.916Z,99895.81
2022-09-04T00:47:59.843Z,99899.66
2022-09-04T00:48:31.440Z,99893.38
2022-09-04T00:49:02.839Z,99893.97
2022-09-04T00:49:34.864Z,99892.88
2022-09-04T00:50:06.479Z,99894.50
2022-09-04T00:50:37.893Z,99893.19
2022-09-04T00:51:09.388Z,99897.03
2022-09-04T00:51:41.412Z,99895.41
2022-09-04T00:52:13.591Z,99896.22
2022-09-04T00:52:46.012Z,99894.28
2022-09-04T00:53:17.999Z,99893.97
2022-09-04T00:53:52.214Z,99892.38
2022-09-04T00:54:23.723Z,99897.84
2022-09-04T00:54:55.419Z,99897.31
2022-09-04T00:55:27.069Z,99898.13
2022-09-04T00:55:58.740Z,99900.88
2022-09-04T00:56:30.495Z,99901.19
2022-09-04T00:57:01.920Z,99898.66
2022-09-04T00:57:34.201Z,99900.88
2022-09-04T00:58:05.721Z,99899.25
2022-09-04T00:58:37.710Z,99897.63
2022-09-04T00:59:09.619Z,99901.47
2022-09-04T00:59:41.202Z,99899.84
2022-09-04T01:00:13.089Z,99899.84
2022-09-04T01:00:45.526Z,99902.59
2022-09-04T01:01:17.124Z,99896.59
2022-09-04T01:01:48.723Z,99900.97
2022-09-04T01:02:20.771Z,99914.94
2022-09-04T01:02:52.682Z,99902.88
2022-09-04T01:03:24.100Z,99908.06
2022-09-04T01:03:58.904Z,99907.53
2022-09-04T01:04:30.432Z,99900.16
2022-09-04T01:05:02.192Z,99898.22
2022-09-04T01:05:34.303Z,99901.25
2022-09-04T01:06:05.999Z,99902.38
2022-09-04T01:06:38.440Z,99911.41
2022-09-04T01:07:09.932Z,99903.19
2022-09-04T01:07:41.611Z,99903.19
2022-09-04T01:08:16.457Z,99907.53
2022-09-04T01:08:48.491Z,99904.81
2022-09-04T01:09:19.908Z,99909.78
2022-09-04T01:09:51.665Z,99909.78
2022-09-04T01:10:23.535Z,99907.03
2022-09-04T01:10:55.073Z,99902.69
2022-09-04T01:11:26.587Z,99907.63
2022-09-04T01:11:58.173Z,99912.81
2022-09-04T01:12:29.727Z,99911.19
2022-09-04T01:13:01.339Z,99907.63
2022-09-04T01:13:33.358Z,99906.53
2022-09-04T01:14:06.977Z,99906.84
2022-09-04T01:14:38.478Z,99911.19
2022-09-04T01:15:10.134Z,99906.53
2022-09-04T01:15:41.611Z,99914.44
2022-09-04T01:16:13.474Z,99914.72
2022-09-04T01:16:44.978Z,99915.53
2022-09-04T01:17:16.890Z,99907.13
2022-09-04T01:17:48.581Z,99919.38
2022-09-04T01:18:20.156Z,99912.59
2022-09-04T01:18:52.241Z,99910.69
2022-09-04T01:19:24.019Z,99915.34
2022-09-04T01:19:55.657Z,99909.06
2022-09-04T01:20:28.219Z,99906.31
2022-09-04T01:21:00.243Z,99909.34
2022-09-04T01:21:32.022Z,99920.81
2022-09-04T01:22:03.763Z,99904.69
2022-09-04T01:22:35.630Z,99913.72
2022-09-04T01:23:07.464Z,99907.72
2022-09-04T01:23:39.250Z,99909.34
2022-09-04T01:24:11.035Z,99907.44
2022-09-04T01:24:42.760Z,99907.72
2022-09-04T01:25:14.665Z,99907.44
2022-09-04T01:25:46.567Z,99903.88
2022-09-04T01:26:18.101Z,99906.91
2022-09-04T01:26:49.523Z,99902.25
2022-09-04T01:27:21.034Z,99901.47
2022-09-04T01:27:52.598Z,99912.38
2022-09-04T01:28:24.455Z,99907.22
2022-09-04T01:28:56.286Z,99909.97
2022-09-04T01:29:27.826Z,99910.16
2022-09-04T01:29:59.785Z,99907.72
2022-09-04T01:30:31.421Z,99900.66
2022-09-04T01:31:02.896Z,99910.47
2022-09-04T01:31:34.795Z,99909.16
2022-09-04T01:32:06.692Z,99906.13
2022-09-04T01:32:38.458Z,99909.97
2022-09-04T01:33:10.462Z,99903.97
2022-09-04T01:33:42.222Z,99902.88
2022-09-04T01:34:13.992Z,99911.06
2022-09-04T01:34:45.538Z,99911.06
2022-09-04T01:35:16.941Z,99906.91
2022-09-04T01:35:48.741Z,99913.50
2022-09-04T01:36:21.447Z,99909.97
2022-09-04T01:36:52.955Z,99908.34
2022-09-04T01:37:24.790Z,99912.19
2022-09-04T01:37:56.469Z,99913.59
2022-09-04T01:38:27.858Z,99911.38
2022-09-04T01:38:59.535Z,99912.19
2022-09-04T01:39:31.097Z,99915.72
2022-09-04T01:40:02.653Z,99905.91
2022-09-04T01:40:35.843Z,99912.47
2022-09-04T01:41:07.715Z,99904.59
2022-09-04T01:41:40.344Z,99917.66
2022-09-04T01:42:11.830Z,99906.50
2022-09-04T01:42:43.797Z,99910.06
2022-09-04T01:43:16.281Z,99910.56
2022-09-04T01:43:47.711Z,99911.97
2022-09-04T01:44:19.455Z,99908.44
2022-09-04T01:44:50.911Z,99909.53
2022-09-04T01:45:22.917Z,99906.28
2022-09-04T01:45:54.523Z,99917.22
2022-09-04T01:46:26.041Z,99906.28
2022-09-04T01:46:57.827Z,99912.56
2022-09-04T01:47:30.004Z,99905.78
2022-09-04T01:48:01.992Z,99911.75
2022-09-04T01:48:33.946Z,99901.94
2022-09-04T01:49:05.895Z,99916.13
2022-09-04T01:49:37.802Z,99913.38
2022-09-04T01:50:09.661Z,99911.75
2022-09-04T01:50:41.352Z,99910.94
2022-09-04T01:51:12.839Z,99920.78
2022-09-04T01:51:44.562Z,99911.75
2022-09-04T01:52:16.081Z,99918.84
2022-09-04T01:52:47.698Z,99914.78
2022-09-04T01:53:19.762Z,99917.22
2022-09-04T01:53:51.673Z,99917.75
2022-09-04T01:54:23.772Z,99923.50
2022-09-04T01:54:55.424Z,99918.84
2022-09-04T01:55:27.243Z,99913.38
2022-09-04T01:55:58.821Z,99918.84
2022-09-04T01:56:30.630Z,99921.06
2022-09-04T01:57:02.240Z,99921.88
2022-09-04T01:57:33.834Z,99910.94
2022-09-04T01:58:08.266Z,99910.94
2022-09-04T01:58:39.893Z,99922.69
2022-09-04T01:59:11.425Z,99923.50
2022-09-04T01:59:44.437Z,99917.53
2022-09-04T02:00:16.289Z,99912.56
2022-09-04T02:00:47.836Z,99915.09
2022-09-04T02:01:21.488Z,99916.72
2022-09-04T02:01:53.152Z,99913.16
2022-09-04T02:02:24.870Z,99924.09
2022-09-04T02:02:56.528Z,99920.25
2022-09-04T02:03:28.008Z,99924.91
2022-09-04T02:03:59.459Z,99919.97
2022-09-04T02:04:30.904Z,99920.25
2022-09-04T02:05:07.742Z,99919.97
2022-09-04T02:05:40.280Z,99923.00
2022-09-04T02:06:11.910Z,99919.16
2022-09-04T02:06:43.865Z,99916.41
2022-09-04T02:07:16.041Z,99914.78
2022-09-04T02:07:47.759Z,99921.59
2022-09-04T02:08:19.775Z,99915.31
2022-09-04T02:08:51.701Z,99917.75
2022-09-04T02:09:23.517Z,99918.03
2022-09-04T02:09:54.950Z,99917.53
2022-09-04T02:10:27.097Z,99919.16
2022-09-04T02:10:58.890Z,99919.16
2022-09-04T02:11:30.795Z,99921.88
2022-09-04T02:12:02.827Z,99922.41
2022-09-04T02:12:38.656Z,99925.94
2022-09-04T02:13:10.393Z,99914.50
2022-09-04T02:13:42.043Z,99929.78
2022-09-04T02:14:13.624Z,99927.88
2022-09-04T02:14:46.676Z,99926.25
2022-09-04T02:15:18.354Z,99923.00
2022-09-04T02:15:50.298Z,99921.38
2022-09-04T02:16:22.108Z,99928.16
2022-09-04T02:16:53.797Z,99931.69
2022-09-04T02:17:25.708Z,99927.06
2022-09-04T02:17:58.281Z,99927.34
2022-09-04T02:18:29.774Z,99924.91
2022-09-04T02:19:01.555Z,99922.69
2022-09-04T02:19:33.124Z,99924.09
2022-09-04T02:20:04.848Z,99932.31
2022-09-04T02:20:36.565Z,99920.25
2022-09-04T02:21:08.100Z,99930.69
2022-09-04T02:21:39.923Z,99933.41
2022-09-04T02:22:11.838Z,99930.97
2022-09-04T02:22:43.657Z,99932.59
2022-09-04T02:23:15.243Z,99932.59
2022-09-04T02:23:46.779Z,99933.41
2022-09-04T02:24:18.396Z,99932.59
2022-09-04T02:24:50.502Z,99933.19
2022-09-04T02:25:22.106Z,99932.91
2022-09-04T02:25:53.756Z,99932.91
2022-09-04T02:26:26.151Z,99940.81
2022-09-04T02:26:58.008Z,99930.47
2022-09-04T02:27:29.914Z,99931.56
2022-09-04T02:28:01.954Z,99937.03
2022-09-04T02:28:33.816Z,99936.75
2022-09-04T02:29:05.815Z,99930.97
2022-09-04T02:29:37.653Z,99932.59
2022-09-04T02:30:09.629Z,99934.81
2022-09-04T02:30:41.513Z,99935.94
2022-09-04T02:31:12.975Z,99941.09
2022-09-04T02:31:44.485Z,99934.81
2022-09-04T02:32:16.375Z,99938.66
2022-09-04T02:32:48.390Z,99939.47
2022-09-04T02:33:19.801Z,99938.66
2022-09-04T02:33:51.528Z,99940.59
2022-09-04T02:34:23.265Z,99935.94
2022-09-04T02:34:55.182Z,99944.13
2022-09-04T02:35:26.679Z,99949.59
2022-09-04T02:35:58.261Z,99942.50
2022-09-04T02:36:29.763Z,99945.75
2022-09-04T02:37:01.250Z,99944.66
2022-09-04T02:37:32.703Z,99947.38
2022-09-04T02:38:04.638Z,99943.84
2022-09-04T02:38:36.466Z,99948.50
2022-09-04T02:39:07.982Z,99944.94
2022-09-04T02:39:41.235Z,99945.25
2022-09-04T02:40:13.398Z,99946.88
2022-09-04T02:40:44.780Z,99943.31
2022-09-04T02:41:16.587Z,99947.97
2022-09-04T02:41:48.038Z,99942.81
2022-09-04T02:42:19.722Z,99951.31
2022-09-04T02:42:51.113Z,99943.91
2022-09-04T02:43:23.290Z,99949.38
2022-09-04T02:43:55.535Z,99948.56
2022-09-04T02:44:26.952Z,99949.38
2022-09-04T02:44:58.708Z,99951.81
2022-09-04T02:45:30.716Z,99949.09
2022-09-04T02:46:02.698Z,99949.38
2022-09-04T02:46:34.486Z,99952.94
2022-09-04T02:47:06.489Z,99954.03
2022-09-04T02:47:37.930Z,99950.19
2022-09-04T02:48:09.710Z,99954.84
2022-09-04T02:48:41.455Z,99954.63
2022-09-04T02:49:13.033Z,99959.50
2022-09-04T02:49:44.731Z,99957.06
2022-09-04T02:50:16.424Z,99961.44
2022-09-04T02:50:48.139Z,99956.47
2022-09-04T02:51:20.189Z,99954.03
2022-09-04T02:51:52.435Z,99962.25
2022-09-04T02:52:23.896Z,99957.06
2022-09-04T02:52:56.116Z,99961.44
2022-09-04T02:53:27.725Z,99960.63
2022-09-04T02:53:59.411Z,99955.16
2022-09-04T02:54:30.801Z,99964.47
2022-09-04T02:55:02.470Z,99959.28
2022-09-04T02:55:34.185Z,99955.44
2022-09-04T02:56:06.094Z,99951.59
2022-09-04T02:56:37.640Z,99962.25
2022-09-04T02:57:09.591Z,99957.59
2022-09-04T02:57:41.441Z,99962.75
2022-09-04T02:58:13.283Z,99959.22
2022-09-04T02:58:44.729Z,99954.25
2022-09-04T02:59:16.234Z,99958.91
2022-09-04T02:59:47.731Z,99960.03
2022-09-04T03:00:21.424Z,99961.66
2022-09-04T03:00:53.437Z,99963.56
2022-09-04T03:01:24.879Z,99960.53
2022-09-04T03:01:56.911Z,99963.25
2022-09-04T03:02:28.778Z,99957.50
2022-09-04T03:03:00.356Z,99962.16
2022-09-04T03:03:31.864Z,99963.78
2022-09-04T03:04:03.820Z,99973.09
2022-09-04T03:04:35.769Z,99960.84
2022-09-04T03:05:08.440Z,99976.94
2022-09-04T03:05:42.556Z,99968.22
2022-09-04T03:06:14.038Z,99961.13
2022-09-04T03:06:46.395Z,99966.59
2022-09-04T03:07:18.306Z,99964.97
2022-09-04T03:07:51.055Z,99966.09
2022-09-04T03:08:23.542Z,99968.81
2022-09-04T03:08:54.995Z,99966.38
2022-09-04T03:09:27.378Z,99961.22
2022-09-04T03:09:58.756Z,99967.19
2022-09-04T03:10:30.402Z,99968.00
2022-09-04T03:11:01.926Z,99967.19
2022-09-04T03:11:33.559Z,99967.19
2022-09-04T03:12:05.045Z,99975.09
2022-09-04T03:12:36.854Z,99971.53
2022-09-04T03:13:08.743Z,99973.47
2022-09-04T03:13:40.362Z,99967.50
2022-09-04T03:14:12.334Z,99969.94
2022-09-04T03:14:44.227Z,99960.09
2022-09-04T03:15:15.989Z,99973.75
2022-09-04T03:15:47.649Z,99974.28
2022-09-04T03:16:19.397Z,99979.75
2022-09-04T03:16:51.296Z,99968.81
2022-09-04T03:17:24.362Z,99976.50
2022-09-04T03:17:56.378Z,99978.13
2022-09-04T03:18:28.588Z,99980.34
2022-09-04T03:19:00.291Z,99978.72
2022-09-04T03:19:31.686Z,99974.56
2022-09-04T03:20:06.741Z,99979.22
2022-09-04T03:20:38.778Z,99975.16
2022-09-04T03:21:10.396Z,99980.94
2022-09-04T03:21:42.262Z,99971.94
2022-09-04T03:22:13.837Z,99979.81
2022-09-04T03:22:45.466Z,99971.13
2022-09-04T03:23:16.964Z,99975.47
2022-09-04T03:23:48.406Z,99978.19
2022-09-04T03:24:19.992Z,99972.75
2022-09-04T03:24:51.437Z,99979.31
2022-09-04T03:25:23.512Z,99973.84
2022-09-04T03:25:55.115Z,99980.94
2022-09-04T03:26:26.798Z,99976.28
2022-09-04T03:26:58.727Z,99981.75
2022-09-04T03:27:30.348Z,99976.28
2022-09-04T03:28:01.898Z,99974.97
2022-09-04T03:28:33.867Z,99977.69
2022-09-04T03:29:05.848Z,99974.16
2022-09-04T03:29:37.632Z,99980.13
2022-09-04T03:30:09.312Z,99977.09
2022-09-04T03:30:40.882Z,99980.41
2022-09-04T03:31:14.960Z,99980.13
2022-09-04T03:31:46.857Z,99977.19
2022-09-04T03:32:18.411Z,99979.09
2022-09-04T03:32:50.451Z,99976.88
2022-09-04T03:33:21.896Z,99977.69
2022-09-04T03:33:53.765Z,99980.41
2022-09-04T03:34:26.283Z,99979.63
2022-09-04T03:34:57.801Z,99978.00
2022-09-04T03:35:29.713Z,99973.34
2022-09-04T03:36:02.174Z,99986.19
2022-09-04T03:36:34.518Z,99984.25
2022-09-04T03:37:06.290Z,99978.78
2022-09-04T03:37:37.763Z,99981.53
2022-09-04T03:38:10.317Z,99978.78
2022-09-04T03:38:41.837Z,99978.00
2022-09-04T03:39:13.719Z,99981.53
2022-09-04T03:39:46.022Z,99980.41
2022-09-04T03:40:17.678Z,99980.94
2022-09-04T03:40:49.773Z,99983.97
2022-09-04T03:41:21.560Z,99987.00
2022-09-04T03:41:52.966Z,99983.44
2022-09-04T03:42:24.612Z,99980.72
2022-09-04T03:42:59.060Z,99982.63
2022-09-04T03:43:30.768Z,99985.38
2022-09-04T03:44:02.631Z,99986.19
2022-09-04T03:44:34.516Z,99979.09
2022-09-04T03:45:05.972Z,99980.72
2022-09-04T03:45:38.168Z,99981.53
2022-09-04T03:46:10.090Z,99983.44
2022-09-04T03:46:41.809Z,99987.00
2022-09-04T03:47:13.314Z,99990.03
2022-09-04T03:47:44.908Z,99992.75
2022-09-04T03:48:16.656Z,99992.47
2022-09-04T03:48:48.100Z,99991.66
2022-09-04T03:49:20.351Z,99985.38
2022-09-04T03:49:52.223Z,99984.56
2022-09-04T03:50:24.159Z,99982.63
2022-09-04T03:50:56.358Z,99992.75
2022-09-04T03:51:27.808Z,99982.13
2022-09-04T03:51:59.637Z,99980.19
2022-09-04T03:52:31.645Z,99992.75
2022-09-04T03:53:03.072Z,99986.47
2022-09-04T03:53:35.082Z,99984.03
2022-09-04T03:54:07.072Z,99984.03
2022-09-04T03:54:38.984Z,99982.13
2022-09-04T03:55:11.057Z,99983.22
2022-09-04T03:55:43.491Z,99980.50
2022-09-04T03:56:15.374Z,99985.97
2022-09-04T03:56:46.883Z,99986.78
2022-09-04T03:57:19.282Z,99983.75
2022-09-04T03:57:50.769Z,99984.34
2022-09-04T03:58:22.413Z,99980.50
2022-09-04T03:58:53.909Z,99988.69
2022-09-04T03:59:25.750Z,99998.28
2022-09-04T03:59:59.628Z,99984.34
2022-09-04T04:00:31.346Z,99985.16
2022-09-04T04:01:03.042Z,99991.22
2022-09-04T04:01:34.654Z,99987.38
2022-09-04T04:02:06.452Z,99983.53
2022-09-04T04:02:38.225Z,99987.06
2022-09-04T04:03:09.777Z,99989.00
2022-09-04T04:03:41.310Z,99981.09
2022-09-04T04:04:12.726Z,99988.19
2022-09-04T04:04:44.493Z,99992.03
2022-09-04T04:05:15.898Z,99993.94
2022-09-04T04:05:48.589Z,99992.03
2022-09-04T04:06:20.006Z,99990.41
2022-09-04T04:06:52.199Z,99994.75
2022-09-04T04:07:24.329Z,99989.00
2022-09-04T04:07:55.814Z,99992.03
2022-09-04T04:08:27.281Z,99981.09
2022-09-04T04:08:58.985Z,99986.56
2022-09-04T04:09:30.907Z,99984.13
2022-09-04T04:10:03.016Z,99988.78
2022-09-04T04:10:34.809Z,99996.69
2022-09-04T04:11:06.519Z,99999.91
2022-09-04T04:11:43.328Z,99995.28
2022-09-04T04:12:15.078Z,99988.41
2022-09-04T04:12:46.888Z,99989.22
2022-09-04T04:13:21.506Z,99990.53
2022-09-04T04:13:53.108Z,99992.97
2022-09-04T04:14:25.152Z,99997.34
2022-09-04T04:14:56.721Z,99998.97
2022-09-04T04:15:28.638Z,99993.50
2022-09-04T04:16:00.249Z,99996.53
2022-09-04T04:16:31.764Z,99994.59
2022-09-04T04:17:03.741Z,99996.22
2022-09-04T04:17:36.196Z,99997.34
2022-09-04T04:18:07.879Z,99990.25
2022-09-04T04:18:39.890Z,99997.34
2022-09-04T04:19:11.643Z,99991.88
2022-09-04T04:19:43.313Z,99996.22
2022-09-04T04:20:14.725Z,99997.34
2022-09-04T04:20:46.462Z,100000.38
2022-09-04T04:21:18.077Z,99994.09
2022-09-04T04:21:49.656Z,99994.09
2022-09-04T04:22:21.442Z,99997.94
2022-09-04T04:22:53.067Z,99998.75
2022-09-04T04:23:25.058Z,99996.00
2022-09-04T04:23:57.005Z,99996.53
2022-09-04T04:24:28.857Z,99994.59
2022-09-04T04:25:01.533Z,99995.72
2022-09-04T04:25:33.036Z,99994.91
2022-09-04T04:26:04.922Z,99990.84
2022-09-04T04:26:36.810Z,99995.19
2022-09-04T04:27:08.394Z,99997.13
2022-09-04T04:27:40.518Z,99990.84
2022-09-04T04:28:12.310Z,99993.56
2022-09-04T04:28:45.168Z,99992.75
2022-09-04T04:29:17.055Z,100003.38
2022-09-04T04:29:48.760Z,99995.19
2022-09-04T04:30:20.762Z,99993.56
2022-09-04T04:30:52.562Z,99988.09
2022-09-04T04:31:24.069Z,99993.56
2022-09-04T04:31:55.920Z,99988.09
2022-09-04T04:32:27.461Z,100003.69
2022-09-04T04:32:58.936Z,100000.13
2022-09-04T04:33:30.651Z,99994.16
2022-09-04T04:34:02.367Z,99998.53
2022-09-04T04:34:33.999Z,100001.25
2022-09-04T04:35:05.734Z,100000.44
2022-09-04T04:35:37.619Z,100000.13
2022-09-04T04:36:09.421Z,99997.72
2022-09-04T04:36:41.091Z,100003.97
2022-09-04T04:37:12.999Z,100005.59
2022-09-04T04:37:44.882Z,99999.63
2022-09-04T04:38:16.707Z,100003.97
2022-09-04T04:38:48.404Z,100006.72
2022-09-04T04:39:19.956Z,100005.91
2022-09-04T04:39:52.197Z,100005.09
2022-09-04T04:40:23.830Z,100010.56
2022-09-04T04:40:55.789Z,100004.56
2022-09-04T04:41:28.434Z,100002.34
2022-09-04T04:42:00.084Z,100012.19
2022-09-04T04:42:31.694Z,100010.56
2022-09-04T04:43:03.517Z,100013.59
2022-09-04T04:43:34.977Z,100022.59
2022-09-04T04:44:06.551Z,100012.47
2022-09-04T04:44:38.946Z,100012.47
2022-09-04T04:45:10.620Z,100010.84
2022-09-04T04:45:42.091Z,100018.75
2022-09-04T04:46:14.036Z,100011.06
2022-09-04T04:46:45.868Z,100014.91
2022-09-04T04:47:17.809Z,100018.47
2022-09-04T04:47:49.716Z,100014.63
2022-09-04T04:48:21.334Z,100020.88
2022-09-04T04:48:52.930Z,100018.16
2022-09-04T04:49:24.799Z,100012.69
2022-09-04T04:49:57.018Z,100020.59
2022-09-04T04:50:28.643Z,100017.06
2022-09-04T04:51:00.242Z,100021.41
2022-09-04T04:51:32.077Z,100018.69
2022-09-04T04:52:03.685Z,100023.03
2022-09-04T04:52:37.768Z,100019.78
2022-09-04T04:53:09.596Z,100015.94
2022-09-04T04:53:41.103Z,100025.25
2022-09-04T04:54:13.144Z,100015.13
2022-09-04T04:54:45.112Z,100020.59
2022-09-04T04:55:17.320Z,100023.91
2022-09-04T04:55:49.433Z,100022.00
2022-09-04T04:56:21.477Z,100022.28
2022-09-04T04:56:53.347Z,100029.69
2022-09-04T04:57:24.787Z,100022.88
2022-09-04T04:57:56.568Z,100034.34
2022-09-04T04:58:28.394Z,100028.88
2022-09-04T04:59:00.002Z,100031.91
2022-09-04T04:59:31.951Z,100029.97
2022-09-04T05:00:03.612Z,100030.28
2022-09-04T05:00:35.076Z,100036.56
2022-09-04T05:01:06.731Z,100038.19
2022-09-04T05:01:38.198Z,100042.00
2022-09-04T05:02:10.056Z,100038.47
2022-09-04T05:02:41.833Z,100042.53
2022-09-04T05:03:13.626Z,100035.16
2022-09-04T05:03:45.363Z,100041.41
2022-09-04T05:04:17.133Z,100038.41
2022-09-04T05:04:49.078Z,100038.09
2022-09-04T05:05:20.833Z,100037.81
2022-09-04T05:05:52.633Z,100041.66
2022-09-04T05:06:24.179Z,100043.56
2022-09-04T05:06:56.037Z,100038.09
2022-09-04T05:07:27.689Z,100035.66
2022-09-04T05:07:59.127Z,100039.50
2022-09-04T05:08:30.846Z,100043.84
2022-09-04T05:09:02.943Z,100038.19
2022-09-04T05:09:35.195Z,100038.69
2022-09-04T05:10:06.834Z,100046.06
2022-09-04T05:10:39.373Z,100037.34
2022-09-04T05:11:10.985Z,100041.72
2022-09-04T05:11:42.879Z,100044.44
2022-09-04T05:12:15.094Z,100039.28
2022-09-04T05:12:46.577Z,100045.03
2022-09-04T05:13:18.397Z,100043.13
2022-09-04T05:13:51.555Z,100040.38
2022-09-04T05:14:24.358Z,100040.38
2022-09-04T05:14:56.613Z,100043.94
2022-09-04T05:15:28.029Z,100045.56
2022-09-04T05:16:08.830Z,100045.56
2022-09-04T05:16:41.106Z,100052.94
2022-09-04T05:17:12.891Z,100050.50
2022-09-04T05:17:44.703Z,100042.00
2022-09-04T05:18:16.974Z,100047.78
2022-09-04T05:18:48.672Z,100047.19
2022-09-04T05:19:20.321Z,100054.84
2022-09-04T05:19:52.407Z,100048.00
2022-09-04T05:20:24.284Z,100048.59
2022-09-04T05:20:56.104Z,100049.41
2022-09-04T05:21:27.681Z,100051.31
2022-09-04T05:21:59.389Z,100049.69
2022-09-04T05:22:34.162Z,100050.81
2022-09-04T05:23:06.373Z,100051.63
2022-09-04T05:23:37.797Z,100054.34
2022-09-04T05:24:09.380Z,100064.16
2022-09-04T05:24:41.013Z,100055.16
2022-09-04T05:25:12.751Z,100051.63
2022-09-04T05:25:44.352Z,100056.25
2022-09-04T05:26:15.798Z,100059.81
2022-09-04T05:26:49.703Z,100057.88
2022-09-04T05:27:21.359Z,100060.91
2022-09-04T05:27:52.733Z,100060.91
2022-09-04T05:28:24.634Z,100064.16
2022-09-04T05:28:56.499Z,100071.53
2022-09-04T05:29:32.366Z,100072.88
2022-09-04T05:30:03.991Z,100069.34
2022-09-04T05:30:35.783Z,100064.69
2022-09-04T05:31:07.587Z,100064.69
2022-09-04T05:31:40.055Z,100072.88
2022-09-04T05:32:13.445Z,100070.16
2022-09-04T05:32:49.058Z,100069.34
2022-09-04T05:33:23.339Z,100074.00
2022-09-04T05:33:54.804Z,100066.59
2022-09-04T05:34:26.608Z,100070.16
2022-09-04T05:34:58.096Z,100073.16
2022-09-04T05:35:31.882Z,100069.34
2022-09-04T05:36:07.384Z,100071.25
2022-09-04T05:36:38.854Z,100069.34
2022-09-04T05:37:10.826Z,100066.09
2022-09-04T05:37:42.713Z,100073.16
2022-09-04T05:38:14.355Z,100075.38
2022-09-04T05:38:45.829Z,100072.38
2022-09-04T05:39:17.367Z,100074.28
2022-09-04T05:39:49.140Z,100076.19
2022-09-04T05:40:21.773Z,100078.94
2022-09-04T05:40:53.748Z,100077.31
2022-09-04T05:41:25.524Z,100073.47
2022-09-04T05:41:56.904Z,100078.63
2022-09-04T05:42:28.747Z,100074.56
2022-09-04T05:43:00.425Z,100077.00
2022-09-04T05:43:31.954Z,100074.28
2022-09-04T05:44:04.218Z,100079.75
2022-09-04T05:44:35.738Z,100080.56
2022-09-04T05:45:07.694Z,100081.66
2022-09-04T05:45:39.110Z,100080.84
2022-09-04T05:46:11.451Z,100075.09
2022-09-04T05:46:43.062Z,100082.78
2022-09-04T05:47:14.712Z,100081.66
2022-09-04T05:47:46.468Z,100085.22
2022-09-04T05:48:18.075Z,100086.03
2022-09-04T05:48:50.332Z,100087.66
2022-09-04T05:49:21.772Z,100088.75
2022-09-04T05:49:53.567Z,100090.16
2022-09-04T05:50:25.503Z,100097.84
2022-09-04T05:50:56.918Z,100091.56
2022-09-04T05:51:28.543Z,100097.03
2022-09-04T05:52:00.526Z,100097.03
2022-09-04T05:52:32.140Z,100097.84
2022-09-04T05:53:04.503Z,100108.47
2022-09-04T05:53:35.926Z,100095.63
2022-09-04T05:54:07.541Z,100107.34
2022-09-04T05:54:39.038Z,100098.88
2022-09-04T05:55:11.262Z,100102.72
2022-09-04T05:55:43.178Z,100098.06
2022-09-04T05:56:14.779Z,100099.69
2022-09-04T05:56:46.550Z,100098.88
2022-09-04T05:57:18.035Z,100101.31
2022-09-04T05:57:49.884Z,100100.50
2022-09-04T05:58:21.822Z,100102.41
2022-09-04T05:58:53.444Z,100096.94
2022-09-04T05:59:25.116Z,100092.28
2022-09-04T05:59:56.807Z,100107.59
2022-09-04T06:00:28.545Z,100099.38
2022-09-04T06:01:00.018Z,100104.56
2022-09-04T06:01:31.466Z,100104.56
2022-09-04T06:02:03.035Z,100100.19
2022-09-04T06:02:34.812Z,100105.38
2022-09-04T06:03:06.417Z,100104.25
2022-09-04T06:03:38.548Z,100098.50
2022-09-04T06:04:10.059Z,100099.63
2022-09-04T06:04:41.591Z,100105.06
2022-09-04T06:05:13.523Z,100106.69
2022-09-04T06:05:45.225Z,100108.31
2022-09-04T06:06:16.888Z,100100.13
2022-09-04T06:06:48.453Z,100102.06
2022-09-04T06:07:20.348Z,100107.50
2022-09-04T06:07:51.771Z,100107.22
2022-09-04T06:08:28.336Z,100102.56
2022-09-04T06:09:00.393Z,100107.75
2022-09-04T06:09:32.075Z,100106.63
2022-09-04T06:10:04.043Z,100108.84
2022-09-04T06:10:35.862Z,100108.56
2022-09-04T06:11:07.430Z,100110.47
2022-09-04T06:11:38.938Z,100109.38